Time;durP1;ratioP1;P1;durP2;ratioP2;P2;SDS_P1;SDS_P2;PMS_P1;PMS_P2;Temp;Humidity;BMP_temperature;BMP_pressure;BME280_temperature;BME280_humidity;BME280_pressure;Samples;Min_cycle;Max_cycle;Signal;HPM_P1;HPM_P2
2021/10/03 00:01:20;;;;;;;26.65;18.02;;;;;;;;;;5125687;27;20407;-89
2021/10/03 00:03:50;;;;;;;24.90;17.70;;;;;;;;;;5115386;28;20443;-89
2021/10/03 00:06:18;;;;;;;23.58;17.85;;;;;;;;;;5114403;27;20404;-90
2021/10/03 00:08:45;;;;;;;25.88;18.20;;;;;;;;;;5128529;27;20428;-87
2021/10/03 00:11:13;;;;;;;24.65;18.27;;;;;;;;;;5125172;27;20411;-89
2021/10/03 00:13:40;;;;;;;25.58;18.05;;;;;;;;;;5131727;27;20461;-90
2021/10/03 00:16:09;;;;;;;23.55;16.70;;;;;;;;;;5128896;27;20404;-89
2021/10/03 00:18:36;;;;;;;24.67;17.20;;;;;;;;;;5113774;28;20948;-89
2021/10/03 00:21:04;;;;;;;22.13;16.65;;;;;;;;;;5125392;27;20409;-89
2021/10/03 00:23:32;;;;;;;23.10;16.48;;;;;;;;;;5129057;27;20397;-89
2021/10/03 00:26:00;;;;;;;23.63;16.80;;;;;;;;;;5127363;27;20412;-88
2021/10/03 00:28:27;;;;;;;22.52;17.35;;;;;;;;;;5131623;27;20421;-90
2021/10/03 00:30:54;;;;;;;21.65;16.33;;;;;;;;;;5130125;27;20412;-89
2021/10/03 00:33:23;;;;;;;22.30;16.85;;;;;;;;;;5125184;27;20402;-90
2021/10/03 00:35:50;;;;;;;23.07;16.53;;;;;;;;;;5129339;27;20489;-87
2021/10/03 00:38:17;;;;;;;24.13;16.35;;;;;;;;;;5106270;27;21030;-88
2021/10/03 00:40:45;;;;;;;23.20;16.57;;;;;;;;;;5131338;27;20395;-86
2021/10/03 00:43:13;;;;;;;23.02;16.55;;;;;;;;;;5131654;27;20408;-87
2021/10/03 00:45:41;;;;;;;22.83;16.27;;;;;;;;;;5130856;27;20405;-89
2021/10/03 00:48:09;;;;;;;23.38;17.00;;;;;;;;;;5122101;27;20915;-88
2021/10/03 00:50:39;;;;;;;22.23;16.13;;;;;;;;;;5104879;27;20401;-87
2021/10/03 00:53:07;;;;;;;22.90;16.50;;;;;;;;;;5115326;27;20400;-89
2021/10/03 00:55:35;;;;;;;21.98;15.93;;;;;;;;;;5124335;27;20457;-87
2021/10/03 00:58:02;;;;;;;22.50;16.48;;;;;;;;;;5124770;27;20418;-88
2021/10/03 01:00:32;;;;;;;21.45;15.90;;;;;;;;;;5110443;27;20418;-88
2021/10/03 01:03:00;;;;;;;24.08;16.33;;;;;;;;;;5124499;27;20405;-87
2021/10/03 01:05:28;;;;;;;22.75;16.67;;;;;;;;;;5122982;27;20404;-87
2021/10/03 01:07:57;;;;;;;22.08;15.52;;;;;;;;;;5128620;27;20473;-88
2021/10/03 01:10:26;;;;;;;23.60;16.42;;;;;;;;;;5129755;27;20461;-88
2021/10/03 01:12:56;;;;;;;23.38;16.27;;;;;;;;;;5130320;27;20389;-88
2021/10/03 01:15:24;;;;;;;23.23;16.42;;;;;;;;;;5123303;27;20483;-89
2021/10/03 01:17:51;;;;;;;23.77;16.88;;;;;;;;;;5120500;27;20402;-88
2021/10/03 01:20:19;;;;;;;24.52;16.77;;;;;;;;;;5123630;27;20412;-89
2021/10/03 01:22:47;;;;;;;23.20;16.63;;;;;;;;;;5130160;27;20389;-88
2021/10/03 01:25:15;;;;;;;24.45;16.63;;;;;;;;;;5129173;27;20397;-87
2021/10/03 01:27:42;;;;;;;24.63;17.38;;;;;;;;;;5129731;27;20556;-89
2021/10/03 01:30:12;;;;;;;21.52;16.33;;;;;;;;;;5111621;27;20397;-88
2021/10/03 01:32:39;;;;;;;21.65;16.10;;;;;;;;;;5115771;27;20386;-89
2021/10/03 01:35:07;;;;;;;22.75;16.17;;;;;;;;;;5118799;27;20401;-89
2021/10/03 01:37:34;;;;;;;24.20;16.27;;;;;;;;;;5123692;27;20416;-89
2021/10/03 01:40:06;;;;;;;21.40;15.90;;;;;;;;;;5116232;27;20444;-88
2021/10/03 01:42:34;;;;;;;25.48;17.20;;;;;;;;;;5124629;27;20432;-90
2021/10/03 01:45:01;;;;;;;23.23;16.23;;;;;;;;;;5125598;27;20794;-88
2021/10/03 01:47:28;;;;;;;22.92;16.60;;;;;;;;;;5130433;27;20814;-88
2021/10/03 01:49:55;;;;;;;21.50;15.90;;;;;;;;;;5110599;27;20458;-88
2021/10/03 01:52:22;;;;;;;22.92;16.25;;;;;;;;;;5127115;27;20385;-89
2021/10/03 01:54:49;;;;;;;23.60;17.13;;;;;;;;;;5126352;27;20408;-88
2021/10/03 01:57:17;;;;;;;23.23;16.70;;;;;;;;;;5116728;27;20394;-88
2021/10/03 01:59:44;;;;;;;22.60;16.38;;;;;;;;;;5126263;27;20401;-88
2021/10/03 02:02:11;;;;;;;25.23;16.90;;;;;;;;;;5129646;27;20401;-88
2021/10/03 02:04:38;;;;;;;22.75;16.17;;;;;;;;;;5123260;27;20412;-87
2021/10/03 02:07:05;;;;;;;21.95;16.35;;;;;;;;;;5124854;27;20396;-89
2021/10/03 02:09:31;;;;;;;22.45;16.33;;;;;;;;;;5124151;27;20401;-88
2021/10/03 02:12:00;;;;;;;23.33;16.77;;;;;;;;;;5119067;27;20396;-89
2021/10/03 02:14:31;;;;;;;23.20;16.13;;;;;;;;;;5114193;27;20395;-88
2021/10/03 02:17:00;;;;;;;22.85;16.60;;;;;;;;;;5124991;27;20426;-88
2021/10/03 02:19:28;;;;;;;23.83;16.30;;;;;;;;;;5115644;27;20405;-89
2021/10/03 02:21:56;;;;;;;21.63;15.75;;;;;;;;;;5127282;27;20393;-88
2021/10/03 02:24:24;;;;;;;22.77;16.27;;;;;;;;;;5127966;27;20397;-89
2021/10/03 02:26:51;;;;;;;23.35;16.05;;;;;;;;;;5090692;27;20400;-89
2021/10/03 02:29:18;;;;;;;21.70;15.82;;;;;;;;;;5120584;27;20408;-88
2021/10/03 02:31:46;;;;;;;21.35;15.30;;;;;;;;;;5114354;27;20447;-87
2021/10/03 02:34:14;;;;;;;20.58;15.85;;;;;;;;;;5127360;27;20401;-90
2021/10/03 02:36:41;;;;;;;21.48;15.32;;;;;;;;;;5124454;27;20394;-88
2021/10/03 02:39:08;;;;;;;21.57;15.73;;;;;;;;;;5116059;27;20446;-89
2021/10/03 02:41:36;;;;;;;22.50;15.57;;;;;;;;;;5113595;27;20389;-88
2021/10/03 02:44:05;;;;;;;23.08;16.25;;;;;;;;;;5127004;27;20408;-89
2021/10/03 02:46:33;;;;;;;23.70;15.45;;;;;;;;;;5128616;27;20397;-89
2021/10/03 02:49:02;;;;;;;21.67;15.30;;;;;;;;;;5127271;27;20408;-89
2021/10/03 02:51:31;;;;;;;22.77;15.50;;;;;;;;;;5124483;27;20401;-89
2021/10/03 02:53:59;;;;;;;21.67;16.17;;;;;;;;;;5126719;27;20405;-88
2021/10/03 02:56:29;;;;;;;21.95;16.17;;;;;;;;;;5126782;27;20413;-89
2021/10/03 02:58:56;;;;;;;22.40;15.60;;;;;;;;;;5126030;27;20409;-90
2021/10/03 03:01:24;;;;;;;22.70;16.17;;;;;;;;;;5125363;27;20452;-88
2021/10/03 03:03:51;;;;;;;23.50;16.33;;;;;;;;;;5124988;27;20432;-89
2021/10/03 03:06:20;;;;;;;22.70;16.37;;;;;;;;;;5121048;27;20433;-90
2021/10/03 03:08:47;;;;;;;23.05;16.40;;;;;;;;;;5127097;27;20420;-90
2021/10/03 03:11:14;;;;;;;23.48;16.30;;;;;;;;;;5127991;27;20435;-90
2021/10/03 03:13:42;;;;;;;21.00;15.80;;;;;;;;;;5126968;27;20455;-90
2021/10/03 03:16:09;;;;;;;22.93;16.27;;;;;;;;;;5127584;27;20683;-90
2021/10/03 03:18:37;;;;;;;21.40;16.10;;;;;;;;;;5117342;27;20405;-89
2021/10/03 03:21:04;;;;;;;23.10;16.00;;;;;;;;;;5126971;27;20494;-88
2021/10/03 03:23:32;;;;;;;23.70;17.10;;;;;;;;;;5128618;27;20396;-88
2021/10/03 03:25:59;;;;;;;21.55;16.23;;;;;;;;;;5121064;27;20461;-89
2021/10/03 03:28:26;;;;;;;24.05;16.23;;;;;;;;;;5121899;27;20911;-89
2021/10/03 03:30:53;;;;;;;22.13;16.55;;;;;;;;;;5127906;27;20438;-90
2021/10/03 03:33:20;;;;;;;22.25;15.68;;;;;;;;;;5124979;27;20393;-89
2021/10/03 03:35:47;;;;;;;24.17;17.13;;;;;;;;;;5127200;27;20401;-89
2021/10/03 03:38:14;;;;;;;21.38;16.00;;;;;;;;;;5123554;27;20395;-89
2021/10/03 03:40:42;;;;;;;25.48;17.23;;;;;;;;;;5125321;27;20397;-89
2021/10/03 03:43:09;;;;;;;23.58;17.13;;;;;;;;;;5127095;27;20733;-90
2021/10/03 03:45:36;;;;;;;24.30;17.35;;;;;;;;;;5127242;28;20392;-89
2021/10/03 03:48:03;;;;;;;24.85;16.83;;;;;;;;;;5127837;27;20900;-89
2021/10/03 03:50:31;;;;;;;22.77;16.17;;;;;;;;;;5110135;28;20485;-89
2021/10/03 03:52:59;;;;;;;23.58;16.77;;;;;;;;;;5124403;27;20408;-89
2021/10/03 03:55:26;;;;;;;22.52;16.05;;;;;;;;;;5125993;27;20395;-92
2021/10/03 03:57:55;;;;;;;22.73;16.75;;;;;;;;;;5131460;27;20449;-92
2021/10/03 04:00:21;;;;;;;21.80;16.27;;;;;;;;;;5131433;27;20421;-91
2021/10/03 04:02:49;;;;;;;23.00;16.48;;;;;;;;;;5112918;27;20401;-89
2021/10/03 04:05:15;;;;;;;22.55;16.45;;;;;;;;;;5125268;27;20466;-90
2021/10/03 04:07:42;;;;;;;21.40;15.88;;;;;;;;;;5132512;27;20757;-88
2021/10/03 04:10:09;;;;;;;21.80;15.63;;;;;;;;;;5110872;27;20396;-90
2021/10/03 04:12:36;;;;;;;21.63;15.68;;;;;;;;;;5130745;27;20401;-89
2021/10/03 04:15:07;;;;;;;23.52;15.98;;;;;;;;;;5131989;27;20404;-89
2021/10/03 04:17:34;;;;;;;22.08;16.00;;;;;;;;;;5131439;27;20426;-89
2021/10/03 04:20:01;;;;;;;23.42;16.13;;;;;;;;;;5113826;27;20801;-90
2021/10/03 04:22:28;;;;;;;24.70;16.15;;;;;;;;;;5112292;27;20398;-89
2021/10/03 04:24:55;;;;;;;21.98;15.77;;;;;;;;;;5121000;27;20462;-89
2021/10/03 04:27:22;;;;;;;22.52;15.70;;;;;;;;;;5132344;27;20401;-90
2021/10/03 04:29:49;;;;;;;23.55;16.40;;;;;;;;;;5127755;27;20438;-89
2021/10/03 04:32:18;;;;;;;21.98;16.05;;;;;;;;;;5113907;27;20457;-91
2021/10/03 04:34:44;;;;;;;24.02;16.35;;;;;;;;;;5133065;27;20390;-90
2021/10/03 04:37:11;;;;;;;23.83;16.45;;;;;;;;;;5112491;27;20398;-91
2021/10/03 04:39:39;;;;;;;23.80;15.75;;;;;;;;;;5125732;27;20410;-92
2021/10/03 04:42:06;;;;;;;25.05;17.23;;;;;;;;;;5133279;27;20396;-91
2021/10/03 04:44:32;;;;;;;25.55;17.27;;;;;;;;;;5129755;27;20400;-92
2021/10/03 04:46:59;;;;;;;26.50;17.60;;;;;;;;;;5123547;27;20408;-91
2021/10/03 04:49:28;;;;;;;27.70;18.02;;;;;;;;;;5137547;27;20408;-92
2021/10/03 04:51:56;;;;;;;26.10;18.52;;;;;;;;;;5124600;27;20409;-92
2021/10/03 04:54:23;;;;;;;31.33;20.00;;;;;;;;;;5098031;28;20425;-92
2021/10/03 04:56:50;;;;;;;30.98;19.67;;;;;;;;;;5110625;27;20415;-92
2021/10/03 04:59:17;;;;;;;29.80;20.00;;;;;;;;;;5127477;27;20397;-92
2021/10/03 05:01:45;;;;;;;28.33;19.73;;;;;;;;;;5127361;27;20436;-91
2021/10/03 05:04:12;;;;;;;29.85;19.77;;;;;;;;;;5130534;27;20948;-90
2021/10/03 05:06:41;;;;;;;27.23;18.77;;;;;;;;;;5131932;27;20385;-91
2021/10/03 05:09:08;;;;;;;30.40;19.98;;;;;;;;;;5132178;27;20893;-91
2021/10/03 05:11:35;;;;;;;29.02;20.08;;;;;;;;;;5127932;27;20398;-90
2021/10/03 05:14:06;;;;;;;30.98;20.13;;;;;;;;;;5132491;27;20443;-91
2021/10/03 05:16:34;;;;;;;31.13;20.95;;;;;;;;;;5122861;27;20753;-91
2021/10/03 05:19:01;;;;;;;31.80;21.08;;;;;;;;;;5129054;27;20393;-91
2021/10/03 05:21:28;;;;;;;31.38;21.02;;;;;;;;;;5108067;27;20411;-91
2021/10/03 05:23:56;;;;;;;33.63;21.40;;;;;;;;;;5125161;27;20395;-89
2021/10/03 05:26:23;;;;;;;35.45;21.40;;;;;;;;;;5123707;27;20393;-91
2021/10/03 05:28:50;;;;;;;33.53;20.90;;;;;;;;;;5123762;27;20424;-91
2021/10/03 05:31:17;;;;;;;37.23;22.47;;;;;;;;;;5132177;27;20472;-90
2021/10/03 05:33:44;;;;;;;35.28;22.05;;;;;;;;;;5125995;27;20408;-92
2021/10/03 05:36:11;;;;;;;36.15;21.70;;;;;;;;;;5131520;27;20396;-92
2021/10/03 05:38:38;;;;;;;37.13;22.15;;;;;;;;;;5131579;27;20405;-92
2021/10/03 05:41:06;;;;;;;34.77;21.03;;;;;;;;;;5131678;27;20404;-91
2021/10/03 05:43:34;;;;;;;35.33;21.63;;;;;;;;;;5127591;27;20402;-92
2021/10/03 05:46:02;;;;;;;31.30;20.40;;;;;;;;;;5126611;27;20998;-92
2021/10/03 05:48:29;;;;;;;36.47;20.50;;;;;;;;;;5127073;27;20869;-92
2021/10/03 05:50:55;;;;;;;34.03;20.92;;;;;;;;;;5131057;27;20905;-93
2021/10/03 05:53:22;;;;;;;34.25;21.10;;;;;;;;;;5123849;27;20466;-92
2021/10/03 05:55:49;;;;;;;36.33;21.07;;;;;;;;;;5128160;27;20389;-92
2021/10/03 05:58:18;;;;;;;33.37;20.63;;;;;;;;;;5130842;27;20465;-92
2021/10/03 06:00:45;;;;;;;32.17;19.67;;;;;;;;;;5128534;27;20405;-91
2021/10/03 06:03:11;;;;;;;31.90;19.80;;;;;;;;;;5130900;27;20433;-91
2021/10/03 06:05:38;;;;;;;33.00;20.10;;;;;;;;;;5129719;27;20400;-91
2021/10/03 06:08:06;;;;;;;33.67;19.67;;;;;;;;;;5130495;27;20400;-93
2021/10/03 06:10:33;;;;;;;30.60;18.92;;;;;;;;;;5114689;27;20399;-91
2021/10/03 06:13:00;;;;;;;30.27;18.73;;;;;;;;;;5104323;27;20396;-90
2021/10/03 06:15:28;;;;;;;28.55;18.00;;;;;;;;;;5125160;27;20402;-91
2021/10/03 06:17:55;;;;;;;25.52;16.80;;;;;;;;;;5124997;27;20426;-91
2021/10/03 06:20:22;;;;;;;27.88;17.40;;;;;;;;;;5121291;27;20397;-92
2021/10/03 06:22:50;;;;;;;25.52;16.98;;;;;;;;;;5116608;27;20393;-93
2021/10/03 06:25:17;;;;;;;26.07;16.77;;;;;;;;;;5110522;27;20397;-92
2021/10/03 06:27:44;;;;;;;26.35;17.30;;;;;;;;;;5127374;27;20426;-93
2021/10/03 06:30:12;;;;;;;28.70;17.92;;;;;;;;;;5112974;27;20813;-93
2021/10/03 06:32:40;;;;;;;28.20;17.52;;;;;;;;;;5128033;27;20401;-91
2021/10/03 06:35:08;;;;;;;30.05;19.08;;;;;;;;;;5130702;27;20393;-91
2021/10/03 06:37:34;;;;;;;31.35;19.50;;;;;;;;;;5131724;27;20409;-91
2021/10/03 06:40:02;;;;;;;29.05;18.95;;;;;;;;;;5120183;27;20773;-92
2021/10/03 06:42:29;;;;;;;28.38;18.95;;;;;;;;;;5103706;27;20398;-89
2021/10/03 06:44:56;;;;;;;29.30;19.17;;;;;;;;;;5111506;27;20411;-91
2021/10/03 06:47:23;;;;;;;30.27;19.07;;;;;;;;;;5130455;27;20492;-90
2021/10/03 06:49:51;;;;;;;30.30;19.27;;;;;;;;;;5151179;27;20397;-89
2021/10/03 06:52:18;;;;;;;28.88;18.95;;;;;;;;;;5148224;27;20388;-87
2021/10/03 06:54:46;;;;;;;29.50;18.85;;;;;;;;;;5126593;27;20401;-89
2021/10/03 06:57:13;;;;;;;29.77;18.27;;;;;;;;;;5144993;27;20401;-87
2021/10/03 06:59:40;;;;;;;28.70;18.17;;;;;;;;;;5150910;27;20407;-88
2021/10/03 07:02:12;;;;;;;31.08;18.95;;;;;;;;;;5134392;27;20407;-86
2021/10/03 07:04:39;;;;;;;27.90;18.38;;;;;;;;;;5133077;27;20893;-88
2021/10/03 07:07:07;;;;;;;27.25;18.05;;;;;;;;;;5152661;27;20381;-86
2021/10/03 07:09:34;;;;;;;26.98;17.38;;;;;;;;;;5150182;27;20427;-88
2021/10/03 07:12:01;;;;;;;26.42;17.05;;;;;;;;;;5145207;27;20441;-88
2021/10/03 07:14:27;;;;;;;26.30;17.50;;;;;;;;;;5132842;27;20492;-88
2021/10/03 07:16:54;;;;;;;26.13;17.27;;;;;;;;;;5130217;27;20411;-87
2021/10/03 07:19:21;;;;;;;24.35;15.82;;;;;;;;;;5118701;27;20465;-88
2021/10/03 07:21:48;;;;;;;24.73;15.75;;;;;;;;;;5129502;27;20896;-89
2021/10/03 07:24:16;;;;;;;23.80;16.20;;;;;;;;;;5129579;28;20401;-89
2021/10/03 07:26:43;;;;;;;23.50;15.88;;;;;;;;;;5129711;27;20875;-87
2021/10/03 07:29:11;;;;;;;21.15;15.10;;;;;;;;;;5123882;27;20419;-88
2021/10/03 07:31:38;;;;;;;24.83;15.93;;;;;;;;;;5130057;27;20803;-90
2021/10/03 07:34:05;;;;;;;22.42;15.20;;;;;;;;;;5124758;27;20397;-91
2021/10/03 07:36:32;;;;;;;23.40;15.95;;;;;;;;;;5129015;27;20791;-88
2021/10/03 07:38:59;;;;;;;22.98;15.32;;;;;;;;;;5131377;27;20884;-87
2021/10/03 07:41:27;;;;;;;21.50;15.50;;;;;;;;;;5128558;27;20450;-91
2021/10/03 07:43:54;;;;;;;24.65;15.65;;;;;;;;;;5128830;27;20409;-89
2021/10/03 07:46:21;;;;;;;20.17;13.88;;;;;;;;;;5114043;27;20392;-90
2021/10/03 07:48:48;;;;;;;23.23;15.30;;;;;;;;;;5125905;27;20529;-90
2021/10/03 07:51:15;;;;;;;21.95;14.95;;;;;;;;;;5110338;27;20393;-90
2021/10/03 07:53:42;;;;;;;21.93;15.00;;;;;;;;;;5121745;28;20487;-90
2021/10/03 07:56:09;;;;;;;23.40;14.63;;;;;;;;;;5126610;27;20408;-89
2021/10/03 07:58:38;;;;;;;21.80;14.68;;;;;;;;;;5113162;28;20410;-90
2021/10/03 08:01:05;;;;;;;24.50;15.82;;;;;;;;;;5126296;27;20393;-90
2021/10/03 08:03:32;;;;;;;22.20;14.63;;;;;;;;;;5130193;27;20396;-90
2021/10/03 08:05:59;;;;;;;21.58;15.27;;;;;;;;;;5127905;27;20486;-89
2021/10/03 08:08:26;;;;;;;21.67;15.13;;;;;;;;;;5127611;27;20397;-90
2021/10/03 08:10:53;;;;;;;22.80;15.23;;;;;;;;;;5127228;28;20841;-89
2021/10/03 08:13:20;;;;;;;21.00;15.07;;;;;;;;;;5128280;27;20400;-89
2021/10/03 08:15:49;;;;;;;21.67;14.95;;;;;;;;;;5124437;27;20392;-90
2021/10/03 08:18:16;;;;;;;22.52;15.32;;;;;;;;;;5122382;27;20397;-90
2021/10/03 08:20:43;;;;;;;21.42;15.27;;;;;;;;;;5123699;28;20802;-87
2021/10/03 08:23:10;;;;;;;21.08;13.98;;;;;;;;;;5122488;27;20465;-89
2021/10/03 08:25:37;;;;;;;20.67;14.60;;;;;;;;;;5102118;28;20787;-89
2021/10/03 08:28:05;;;;;;;21.65;14.65;;;;;;;;;;5120691;28;20474;-89
2021/10/03 08:30:32;;;;;;;21.00;14.38;;;;;;;;;;5118861;27;20412;-88
2021/10/03 08:33:05;;;;;;;20.27;14.23;;;;;;;;;;5118526;27;20741;-90
2021/10/03 08:35:32;;;;;;;20.50;13.98;;;;;;;;;;5118020;27;20396;-91
2021/10/03 08:37:59;;;;;;;20.77;13.65;;;;;;;;;;5105960;28;20872;-90
2021/10/03 08:40:26;;;;;;;18.85;14.10;;;;;;;;;;5116039;27;20411;-91
2021/10/03 08:42:54;;;;;;;18.67;13.90;;;;;;;;;;5102437;28;20756;-90
2021/10/03 08:45:21;;;;;;;21.50;14.35;;;;;;;;;;5101936;27;20393;-91
2021/10/03 08:47:49;;;;;;;19.47;13.73;;;;;;;;;;5109380;27;20430;-90
2021/10/03 08:50:19;;;;;;;17.67;13.15;;;;;;;;;;5099436;27;20405;-90
2021/10/03 08:52:47;;;;;;;18.67;13.13;;;;;;;;;;5120023;27;20407;-89
2021/10/03 08:55:16;;;;;;;16.97;12.70;;;;;;;;;;5120764;27;20758;-90
2021/10/03 08:57:44;;;;;;;17.55;12.60;;;;;;;;;;5128244;27;20406;-90
2021/10/03 09:00:13;;;;;;;17.77;12.82;;;;;;;;;;5129917;27;20407;-91
2021/10/03 09:03:00;;;;;;;18.98;13.20;;;;;;;;;;5131792;27;20413;-90
2021/10/03 09:05:30;;;;;;;17.42;12.55;;;;;;;;;;5130801;27;20805;-91
2021/10/03 09:08:04;;;;;;;18.67;12.55;;;;;;;;;;5130706;27;20401;-89
2021/10/03 09:11:04;;;;;;;17.67;13.00;;;;;;;;;;5131562;27;20434;-88
2021/10/03 09:13:47;;;;;;;18.75;12.85;;;;;;;;;;5129273;27;20445;-90
2021/10/03 09:16:17;;;;;;;15.20;10.90;;;;;;;;;;5125367;27;20500;-92
2021/10/03 09:18:47;;;;;;;14.43;10.57;;;;;;;;;;5135409;27;20400;-90
2021/10/03 09:21:34;;;;;;;16.27;12.20;;;;;;;;;;5113698;22;20472;-85
2021/10/03 09:24:02;;;;;;;16.17;11.13;;;;;;;;;;5050076;28;20490;-84
2021/10/03 09:26:29;;;;;;;15.43;10.10;;;;;;;;;;5050758;28;20400;-84
2021/10/03 09:28:56;;;;;;;14.60;10.10;;;;;;;;;;5054496;28;20467;-84
2021/10/03 09:31:24;;;;;;;15.02;10.75;;;;;;;;;;5062633;28;20455;-84
2021/10/03 09:33:53;;;;;;;14.88;9.65;;;;;;;;;;5059596;28;20455;-84
2021/10/03 09:36:24;;;;;;;13.02;9.75;;;;;;;;;;5058531;28;20412;-84
2021/10/03 09:38:55;;;;;;;15.98;9.43;;;;;;;;;;5061296;28;20408;-84
2021/10/03 09:41:24;;;;;;;13.93;9.35;;;;;;;;;;5056689;28;20417;-84
2021/10/03 09:43:54;;;;;;;15.73;9.75;;;;;;;;;;5059026;28;20407;-84
2021/10/03 09:46:40;;;;;;;11.60;8.60;;;;;;;;;;5057332;28;20402;-84
2021/10/03 09:49:10;;;;;;;14.57;8.20;;;;;;;;;;5054559;28;20765;-84
2021/10/03 09:51:40;;;;;;;13.23;9.48;;;;;;;;;;5053840;28;20399;-84
2021/10/03 09:54:07;;;;;;;12.20;8.80;;;;;;;;;;5054180;28;20402;-86
2021/10/03 09:56:35;;;;;;;11.43;8.07;;;;;;;;;;5050113;28;20922;-84
2021/10/03 09:59:03;;;;;;;13.35;8.13;;;;;;;;;;5047053;28;20421;-84
2021/10/03 10:01:32;;;;;;;11.93;8.45;;;;;;;;;;5054905;28;20410;-84
2021/10/03 10:03:59;;;;;;;12.33;8.70;;;;;;;;;;5058215;28;20444;-84
2021/10/03 10:06:26;;;;;;;10.82;8.00;;;;;;;;;;5063829;28;20468;-84
2021/10/03 10:08:56;;;;;;;10.68;7.50;;;;;;;;;;5053509;28;20426;-84
2021/10/03 10:11:35;;;;;;;10.63;7.23;;;;;;;;;;5057108;28;20516;-85
2021/10/03 10:14:04;;;;;;;9.93;7.03;;;;;;;;;;5054438;28;21418;-83
2021/10/03 10:16:41;;;;;;;8.68;6.75;;;;;;;;;;5049477;28;20767;-82
2021/10/03 10:19:35;;;;;;;9.27;7.32;;;;;;;;;;5053174;28;20395;-83
2021/10/03 10:22:30;;;;;;;11.60;7.28;;;;;;;;;;5057066;28;21093;-82
2021/10/03 10:25:00;;;;;;;7.20;5.93;;;;;;;;;;5052245;28;21008;-82
2021/10/03 10:28:07;;;;;;;10.95;8.63;;;;;;;;;;5052578;28;20430;-82
2021/10/03 10:30:35;;;;;;;8.00;6.57;;;;;;;;;;5055071;28;20515;-83
2021/10/03 10:33:05;;;;;;;11.25;7.30;;;;;;;;;;5051008;28;20935;-82
2021/10/03 10:35:33;;;;;;;11.20;7.67;;;;;;;;;;5058878;28;20463;-81
2021/10/03 10:38:19;;;;;;;8.10;6.25;;;;;;;;;;5052595;28;20924;-81
2021/10/03 10:40:50;;;;;;;9.02;6.25;;;;;;;;;;5055269;28;20416;-81
2021/10/03 10:43:43;;;;;;;12.13;7.43;;;;;;;;;;5049753;28;20526;-80
2021/10/03 10:46:44;;;;;;;10.95;7.50;;;;;;;;;;5049685;28;20427;-79
2021/10/03 10:49:45;;;;;;;8.23;6.70;;;;;;;;;;5047474;28;20486;-82
2021/10/03 10:52:41;;;;;;;8.65;6.28;;;;;;;;;;5052858;28;20483;-83
2021/10/03 10:55:29;;;;;;;7.57;5.93;;;;;;;;;;5054209;28;20406;-82
2021/10/03 10:58:17;;;;;;;7.15;5.63;;;;;;;;;;5056264;28;20902;-83
2021/10/03 11:01:14;;;;;;;8.20;5.53;;;;;;;;;;5053459;28;20465;-84
2021/10/03 11:04:02;;;;;;;7.85;5.80;;;;;;;;;;5047325;28;20427;-82
2021/10/03 11:07:00;;;;;;;6.22;5.10;;;;;;;;;;5049603;28;20786;-84
2021/10/03 11:09:31;;;;;;;7.07;5.40;;;;;;;;;;5055533;28;20398;-83
2021/10/03 11:12:08;;;;;;;7.78;5.30;;;;;;;;;;5050993;28;20472;-83
2021/10/03 11:14:41;;;;;;;6.72;5.50;;;;;;;;;;5047647;28;20418;-81
2021/10/03 11:17:10;;;;;;;6.30;5.00;;;;;;;;;;5051173;28;20492;-83
2021/10/03 11:19:41;;;;;;;6.32;5.10;;;;;;;;;;5050864;28;20466;-83
2021/10/03 11:22:10;;;;;;;7.55;5.35;;;;;;;;;;5054322;28;20417;-83
2021/10/03 11:24:38;;;;;;;7.05;5.60;;;;;;;;;;5051314;28;20791;-82
2021/10/03 11:27:07;;;;;;;6.53;5.43;;;;;;;;;;5052040;28;20401;-81
2021/10/03 11:29:37;;;;;;;8.48;5.60;;;;;;;;;;5043871;28;20395;-80
2021/10/03 11:32:06;;;;;;;7.30;5.30;;;;;;;;;;5053148;28;20434;-81
2021/10/03 11:34:35;;;;;;;6.72;5.03;;;;;;;;;;5050278;28;20408;-80
2021/10/03 11:37:04;;;;;;;6.38;5.28;;;;;;;;;;5051397;28;20876;-84
2021/10/03 11:39:47;;;;;;;8.45;5.55;;;;;;;;;;5046659;28;20404;-84
2021/10/03 11:42:16;;;;;;;6.93;5.38;;;;;;;;;;5047479;28;20420;-84
2021/10/03 11:44:44;;;;;;;7.35;5.88;;;;;;;;;;5050261;28;20410;-84
2021/10/03 11:47:13;;;;;;;7.93;5.47;;;;;;;;;;5049807;28;20872;-84
2021/10/03 11:49:42;;;;;;;7.30;5.50;;;;;;;;;;5043278;28;20420;-83
2021/10/03 11:52:13;;;;;;;6.90;5.30;;;;;;;;;;5048549;28;20426;-80
2021/10/03 11:54:45;;;;;;;8.75;5.15;;;;;;;;;;5048564;28;20404;-81
2021/10/03 11:57:28;;;;;;;8.18;5.53;;;;;;;;;;5042943;28;20541;-84
2021/10/03 12:00:15;;;;;;;6.22;5.07;;;;;;;;;;5049481;28;20411;-85
2021/10/03 12:02:44;;;;;;;6.72;5.72;;;;;;;;;;5046387;28;20412;-77
2021/10/03 12:05:13;;;;;;;6.93;5.50;;;;;;;;;;5044963;28;20404;-83
2021/10/03 12:07:40;;;;;;;6.80;5.53;;;;;;;;;;5044978;28;20414;-83
2021/10/03 12:10:09;;;;;;;6.80;5.20;;;;;;;;;;5047871;28;20927;-81
2021/10/03 12:13:00;;;;;;;7.53;5.80;;;;;;;;;;5047693;28;20399;-81
2021/10/03 12:15:53;;;;;;;7.00;5.30;;;;;;;;;;5049731;28;20772;-82
2021/10/03 12:18:43;;;;;;;6.97;5.28;;;;;;;;;;5046327;28;20493;-82
2021/10/03 12:21:15;;;;;;;8.40;5.35;;;;;;;;;;5043849;28;20411;-81
2021/10/03 12:23:54;;;;;;;6.43;5.60;;;;;;;;;;5053855;28;20878;-82
2021/10/03 12:26:28;;;;;;;6.95;5.60;;;;;;;;;;5051280;28;20400;-82
2021/10/03 12:29:09;;;;;;;7.93;5.70;;;;;;;;;;5051579;28;20415;-82
2021/10/03 12:31:47;;;;;;;6.73;5.57;;;;;;;;;;5055669;28;20425;-82
2021/10/03 12:34:32;;;;;;;6.83;5.60;;;;;;;;;;5060961;28;20414;-82
2021/10/03 12:37:01;;;;;;;7.22;5.15;;;;;;;;;;5056124;28;20737;-83
2021/10/03 12:39:30;;;;;;;6.70;5.20;;;;;;;;;;5062671;28;20419;-83
2021/10/03 12:41:58;;;;;;;5.30;4.80;;;;;;;;;;5056942;28;20400;-81
2021/10/03 12:44:26;;;;;;;7.03;5.10;;;;;;;;;;5054579;28;20413;-80
2021/10/03 12:46:56;;;;;;;6.20;4.95;;;;;;;;;;5052187;28;20394;-80
2021/10/03 12:49:23;;;;;;;6.63;5.25;;;;;;;;;;5054229;28;20409;-80
2021/10/03 12:51:50;;;;;;;8.20;5.10;;;;;;;;;;5060001;28;20427;-80
2021/10/03 12:54:16;;;;;;;6.97;5.20;;;;;;;;;;5054711;28;20475;-79
2021/10/03 12:56:43;;;;;;;7.85;5.75;;;;;;;;;;5056841;28;20413;-81
2021/10/03 12:59:10;;;;;;;7.82;4.78;;;;;;;;;;5059194;28;20418;-81
2021/10/03 13:01:37;;;;;;;5.47;4.97;;;;;;;;;;5056819;28;20399;-81
2021/10/03 13:04:06;;;;;;;6.40;5.40;;;;;;;;;;5056739;28;21074;-83
2021/10/03 13:06:33;;;;;;;8.52;6.60;;;;;;;;;;5057200;28;20398;-81
2021/10/03 13:08:59;;;;;;;8.83;5.60;;;;;;;;;;5057518;28;20444;-82
2021/10/03 13:11:26;;;;;;;7.10;5.60;;;;;;;;;;5055113;28;20898;-80
2021/10/03 13:13:53;;;;;;;11.05;6.93;;;;;;;;;;5057184;28;20404;-80
2021/10/03 13:16:20;;;;;;;8.50;6.72;;;;;;;;;;5059099;28;20409;-81
2021/10/03 13:18:47;;;;;;;5.82;5.18;;;;;;;;;;5055077;28;20477;-81
2021/10/03 13:21:15;;;;;;;6.18;5.13;;;;;;;;;;5058589;28;20417;-82
2021/10/03 13:23:42;;;;;;;7.85;6.28;;;;;;;;;;5054306;28;20408;-81
2021/10/03 13:26:08;;;;;;;13.60;9.50;;;;;;;;;;5053552;28;20422;-80
2021/10/03 13:28:35;;;;;;;7.70;5.18;;;;;;;;;;5052340;28;20407;-81
2021/10/03 13:31:04;;;;;;;7.03;5.33;;;;;;;;;;5049579;28;20411;-81
2021/10/03 13:33:31;;;;;;;8.27;6.28;;;;;;;;;;5054351;28;20404;-83
2021/10/03 13:35:58;;;;;;;6.00;5.40;;;;;;;;;;5056007;28;20407;-82
2021/10/03 13:38:27;;;;;;;6.70;4.97;;;;;;;;;;5058163;28;20407;-82
2021/10/03 13:40:54;;;;;;;7.07;4.82;;;;;;;;;;5056061;28;20762;-81
2021/10/03 13:43:21;;;;;;;8.07;5.50;;;;;;;;;;5061109;28;20396;-81
2021/10/03 13:45:48;;;;;;;10.35;8.68;;;;;;;;;;5056513;28;20400;-82
2021/10/03 13:48:15;;;;;;;7.70;6.07;;;;;;;;;;5056761;28;20394;-82
2021/10/03 13:50:42;;;;;;;7.35;5.57;;;;;;;;;;5052012;28;20406;-82
2021/10/03 13:53:09;;;;;;;9.18;7.32;;;;;;;;;;5057422;28;20408;-82
2021/10/03 13:55:38;;;;;;;9.02;6.00;;;;;;;;;;5050080;28;20398;-81
2021/10/03 13:58:05;;;;;;;14.93;10.38;;;;;;;;;;5052412;28;20436;-82
2021/10/03 14:00:32;;;;;;;6.95;6.25;;;;;;;;;;5058885;28;20835;-82
2021/10/03 14:02:59;;;;;;;7.57;5.97;;;;;;;;;;5059490;28;20458;-82
2021/10/03 14:05:26;;;;;;;7.93;6.82;;;;;;;;;;5055865;28;20416;-82
2021/10/03 14:07:54;;;;;;;7.80;6.35;;;;;;;;;;5055548;28;20495;-82
2021/10/03 14:10:21;;;;;;;7.10;6.05;;;;;;;;;;5056474;28;20404;-83
2021/10/03 14:12:50;;;;;;;6.43;5.30;;;;;;;;;;5058452;28;20449;-83
2021/10/03 14:15:16;;;;;;;5.50;5.00;;;;;;;;;;5054901;28;20401;-83
2021/10/03 14:17:47;;;;;;;5.40;4.75;;;;;;;;;;5059574;28;20456;-83
2021/10/03 14:20:15;;;;;;;6.57;5.00;;;;;;;;;;5055183;28;21074;-84
2021/10/03 14:22:42;;;;;;;4.97;4.57;;;;;;;;;;5055156;28;20429;-83
2021/10/03 14:25:09;;;;;;;5.60;4.72;;;;;;;;;;5054141;28;20411;-82
2021/10/03 14:27:36;;;;;;;6.70;5.22;;;;;;;;;;5055864;28;20455;-83
2021/10/03 14:30:06;;;;;;;8.98;7.28;;;;;;;;;;5050803;28;20404;-82
2021/10/03 14:32:33;;;;;;;6.18;4.93;;;;;;;;;;5056704;28;20768;-82
2021/10/03 14:35:00;;;;;;;5.43;4.93;;;;;;;;;;5056423;28;21651;-80
2021/10/03 14:37:27;;;;;;;6.07;5.28;;;;;;;;;;5054925;28;20395;-81
2021/10/03 14:39:54;;;;;;;8.55;7.35;;;;;;;;;;5057728;28;20395;-82